createdAt,value
2023-05-14T00:01:09.044Z,69.48
2023-05-14T00:03:41.124Z,69.58
2023-05-14T00:06:12.875Z,69.76
2023-05-14T00:08:44.344Z,70.03
2023-05-14T00:11:17.373Z,70.17
2023-05-14T00:13:49.332Z,70.16
2023-05-14T00:16:20.852Z,69.82
2023-05-14T00:18:51.012Z,69.51
2023-05-14T00:21:22.954Z,69.73
2023-05-14T00:23:54.459Z,69.71
2023-05-14T00:26:25.920Z,69.90
2023-05-14T00:28:57.449Z,70.43
2023-05-14T00:31:29.054Z,70.12
2023-05-14T00:34:00.652Z,70.19
2023-05-14T00:36:32.311Z,70.30
2023-05-14T00:39:02.319Z,70.18
2023-05-14T00:41:33.951Z,70.68
2023-05-14T00:44:04.080Z,70.94
2023-05-14T00:46:35.701Z,71.18
2023-05-14T00:49:05.874Z,71.16
2023-05-14T00:51:38.065Z,71.53
2023-05-14T00:54:10.300Z,71.50
2023-05-14T00:56:42.051Z,71.47
2023-05-14T00:59:13.778Z,71.58
2023-05-14T01:01:45.505Z,71.74
2023-05-14T01:04:15.865Z,71.61
2023-05-14T01:06:58.725Z,72.05
2023-05-14T01:09:38.774Z,71.75
2023-05-14T01:12:18.272Z,71.62
2023-05-14T01:15:01.596Z,71.38
2023-05-14T01:17:36.500Z,71.67
2023-05-14T01:20:13.353Z,71.76
2023-05-14T01:22:44.902Z,71.83
2023-05-14T01:25:16.690Z,71.61
2023-05-14T01:27:50.722Z,71.50
2023-05-14T01:30:27.401Z,71.89
2023-05-14T01:33:04.076Z,71.88
2023-05-14T01:35:36.057Z,72.17
2023-05-14T01:38:11.621Z,72.35
2023-05-14T01:40:43.717Z,72.54
2023-05-14T01:43:16.100Z,72.57
2023-05-14T01:45:48.037Z,72.65
2023-05-14T01:48:19.608Z,72.51
2023-05-14T01:50:49.691Z,72.29
2023-05-14T01:53:21.409Z,72.59
2023-05-14T01:55:52.941Z,72.77
2023-05-14T01:58:24.573Z,72.83
2023-05-14T02:00:54.646Z,72.98
2023-05-14T02:03:26.437Z,73.22
2023-05-14T02:05:57.896Z,73.00
2023-05-14T02:08:29.490Z,73.05
2023-05-14T02:10:59.547Z,72.98
2023-05-14T02:13:31.128Z,73.23
2023-05-14T02:16:03.089Z,73.28
2023-05-14T02:18:33.253Z,73.60
2023-05-14T02:21:04.988Z,73.77
2023-05-14T02:23:41.572Z,73.67
2023-05-14T02:26:13.824Z,73.50
2023-05-14T02:28:43.937Z,73.39
2023-05-14T02:31:19.362Z,73.37
2023-05-14T02:33:51.007Z,73.25
2023-05-14T02:36:21.144Z,73.25
2023-05-14T02:38:52.693Z,73.47
2023-05-14T02:41:24.269Z,73.57
2023-05-14T02:43:56.861Z,73.74
2023-05-14T02:46:28.468Z,74.03
2023-05-14T02:49:00.090Z,74.13
2023-05-14T02:51:31.670Z,74.38
2023-05-14T02:54:01.721Z,74.28
2023-05-14T02:56:33.290Z,74.63
2023-05-14T02:59:03.367Z,74.46
2023-05-14T03:01:35.388Z,74.35
2023-05-14T03:04:07.660Z,74.26
2023-05-14T03:06:39.272Z,74.20
2023-05-14T03:09:10.846Z,74.16
2023-05-14T03:11:41.065Z,74.39
2023-05-14T03:14:12.570Z,74.60
2023-05-14T03:16:44.196Z,74.57
2023-05-14T03:19:16.908Z,74.66
2023-05-14T03:21:49.992Z,74.90
2023-05-14T03:24:21.478Z,74.96
2023-05-14T03:26:53.261Z,74.79
2023-05-14T03:29:24.771Z,75.05
2023-05-14T03:31:56.557Z,75.42
2023-05-14T03:34:28.744Z,75.93
2023-05-14T03:36:58.793Z,76.15
2023-05-14T03:39:30.300Z,76.09
2023-05-14T03:42:02.030Z,75.64
2023-05-14T03:44:32.062Z,74.69
2023-05-14T03:47:03.656Z,74.21
2023-05-14T03:49:35.552Z,73.36
2023-05-14T03:52:07.430Z,72.90
2023-05-14T03:54:41.165Z,72.49
2023-05-14T03:57:12.900Z,71.83
2023-05-14T03:59:45.787Z,70.72
2023-05-14T04:02:18.056Z,69.37
2023-05-14T04:04:49.822Z,68.55
2023-05-14T04:07:26.123Z,67.91
2023-05-14T04:09:58.346Z,67.14
2023-05-14T04:12:29.860Z,65.45
2023-05-14T04:15:02.302Z,64.01
2023-05-14T04:17:35.086Z,63.08
2023-05-14T04:20:08.726Z,61.94
2023-05-14T04:22:40.323Z,60.59
2023-05-14T04:25:12.500Z,58.65
2023-05-14T04:27:44.520Z,57.05
2023-05-14T04:30:16.649Z,56.48
2023-05-14T04:32:48.217Z,55.04
2023-05-14T04:35:21.622Z,55.23
2023-05-14T04:37:54.971Z,54.57
2023-05-14T04:40:26.710Z,54.17
2023-05-14T04:42:58.411Z,52.72
2023-05-14T04:45:30.862Z,50.80
2023-05-14T04:48:03.503Z,48.27
2023-05-14T04:50:35.362Z,47.75
2023-05-14T04:53:06.962Z,47.70
2023-05-14T04:55:38.936Z,48.06
2023-05-14T04:58:10.495Z,47.93
2023-05-14T05:00:42.034Z,47.28
2023-05-14T05:03:13.538Z,46.08
2023-05-14T05:05:45.171Z,45.16
2023-05-14T05:08:16.740Z,44.24
2023-05-14T05:10:48.295Z,44.36
2023-05-14T05:13:19.838Z,44.96
2023-05-14T05:15:51.462Z,45.13
2023-05-14T05:18:23.013Z,45.35
2023-05-14T05:20:54.504Z,44.59
2023-05-14T05:23:26.057Z,44.90
2023-05-14T05:25:57.638Z,45.05
2023-05-14T05:28:29.194Z,45.41
2023-05-14T05:31:00.725Z,45.77
2023-05-14T05:33:32.459Z,43.93
2023-05-14T05:36:03.983Z,41.25
2023-05-14T05:38:35.556Z,40.57
2023-05-14T05:41:07.481Z,41.23
2023-05-14T05:43:39.246Z,40.88
2023-05-14T05:46:10.924Z,41.23
2023-05-14T05:48:42.489Z,41.15
2023-05-14T05:51:14.256Z,40.67
2023-05-14T05:53:46.199Z,39.41
2023-05-14T05:56:17.727Z,39.29
2023-05-14T05:58:49.281Z,39.28
2023-05-14T06:01:20.831Z,38.27
2023-05-14T06:03:52.313Z,38.40
2023-05-14T06:06:23.791Z,38.03
2023-05-14T06:08:55.308Z,38.30
2023-05-14T06:11:27.687Z,38.31
2023-05-14T06:13:59.269Z,38.83
2023-05-14T06:16:31.358Z,39.15
2023-05-14T06:19:03.058Z,39.72
2023-05-14T06:21:34.923Z,39.25
2023-05-14T06:24:08.699Z,39.08
2023-05-14T06:26:40.309Z,38.15
2023-05-14T06:29:11.878Z,38.42
2023-05-14T06:31:43.551Z,38.96
2023-05-14T06:34:15.135Z,39.10
2023-05-14T06:36:46.646Z,39.54
2023-05-14T06:39:18.162Z,39.73
2023-05-14T06:41:49.654Z,39.45
2023-05-14T06:44:21.964Z,39.65
2023-05-14T06:46:53.429Z,39.35
2023-05-14T06:49:25.185Z,38.31
2023-05-14T06:51:56.708Z,37.02
2023-05-14T06:54:28.462Z,36.83
2023-05-14T06:57:00.048Z,35.84
2023-05-14T06:59:31.572Z,36.28
2023-05-14T07:02:03.303Z,36.44
2023-05-14T07:04:34.962Z,37.47
2023-05-14T07:07:07.236Z,38.12
2023-05-14T07:09:38.682Z,38.84
2023-05-14T07:12:11.102Z,39.75
2023-05-14T07:14:42.729Z,39.52
2023-05-14T07:17:14.350Z,39.67
2023-05-14T07:19:47.174Z,39.65
2023-05-14T07:22:18.835Z,39.94
2023-05-14T07:24:50.477Z,40.27
2023-05-14T07:27:21.958Z,41.00
2023-05-14T07:29:53.735Z,40.38
2023-05-14T07:32:25.434Z,41.06
2023-05-14T07:34:56.973Z,41.85
2023-05-14T07:37:28.568Z,42.10
2023-05-14T07:40:00.230Z,41.46
2023-05-14T07:42:36.519Z,41.80
2023-05-14T07:45:11.612Z,42.95
2023-05-14T07:47:43.380Z,43.19
2023-05-14T07:50:15.401Z,43.58
2023-05-14T07:52:47.138Z,43.22
2023-05-14T07:55:18.909Z,42.99
2023-05-14T07:57:50.415Z,43.60
2023-05-14T08:00:22.347Z,44.17
2023-05-14T08:02:54.265Z,44.57
2023-05-14T08:05:26.515Z,44.96
2023-05-14T08:07:58.063Z,45.44
2023-05-14T08:10:29.936Z,45.04
2023-05-14T08:13:01.509Z,45.38
2023-05-14T08:15:33.010Z,45.41
2023-05-14T08:18:04.758Z,45.17
2023-05-14T08:20:36.452Z,45.07
2023-05-14T08:23:07.959Z,45.07
2023-05-14T08:25:39.494Z,45.09
2023-05-14T08:28:11.027Z,45.67
2023-05-14T08:30:42.608Z,45.72
2023-05-14T08:33:14.444Z,45.25
2023-05-14T08:35:46.030Z,44.34
2023-05-14T08:38:17.589Z,43.88
2023-05-14T08:40:57.159Z,43.54
2023-05-14T08:43:31.783Z,44.26
2023-05-14T08:46:06.388Z,44.47
2023-05-14T08:48:41.531Z,43.78
2023-05-14T08:51:13.731Z,43.11
2023-05-14T08:53:45.487Z,42.62
2023-05-14T08:56:19.597Z,42.80
2023-05-14T08:58:51.142Z,43.00
2023-05-14T09:01:23.268Z,42.20
2023-05-14T09:03:55.575Z,42.18
2023-05-14T09:06:28.284Z,41.94
2023-05-14T09:08:59.861Z,42.65
2023-05-14T09:11:31.419Z,42.59
2023-05-14T09:14:02.932Z,42.12
2023-05-14T09:16:36.931Z,42.30
2023-05-14T09:19:09.201Z,41.23
2023-05-14T09:21:41.164Z,41.50
2023-05-14T09:24:21.838Z,41.69
2023-05-14T09:26:56.203Z,41.39
2023-05-14T09:29:29.265Z,41.85
2023-05-14T09:32:04.701Z,41.32
2023-05-14T09:34:38.311Z,40.26
2023-05-14T09:37:10.838Z,40.05
2023-05-14T09:39:42.333Z,39.77
2023-05-14T09:42:13.849Z,39.68
2023-05-14T09:44:46.987Z,40.10
2023-05-14T09:47:18.758Z,40.55
2023-05-14T09:49:51.980Z,40.27
2023-05-14T09:52:24.330Z,40.84
2023-05-14T09:54:56.113Z,40.08
2023-05-14T09:57:27.873Z,39.31
2023-05-14T09:59:59.413Z,39.11
2023-05-14T10:02:37.943Z,38.32
2023-05-14T10:05:11.339Z,38.57
2023-05-14T10:07:47.616Z,39.15
2023-05-14T10:10:21.924Z,39.93
2023-05-14T10:12:58.248Z,39.44
2023-05-14T10:15:39.369Z,39.17
2023-05-14T10:18:10.824Z,38.93
2023-05-14T10:20:41.223Z,38.22
2023-05-14T10:23:13.041Z,38.37
2023-05-14T10:25:44.870Z,38.26
2023-05-14T10:28:16.530Z,38.11
2023-05-14T10:30:48.766Z,36.27
2023-05-14T10:33:21.013Z,36.61
2023-05-14T10:35:59.147Z,37.57
2023-05-14T10:38:33.591Z,37.35
2023-05-14T10:41:15.007Z,37.45
2023-05-14T10:43:46.843Z,37.34
2023-05-14T10:46:19.091Z,37.68
2023-05-14T10:48:52.036Z,36.98
2023-05-14T10:51:24.367Z,36.73
2023-05-14T10:53:55.920Z,36.62
2023-05-14T10:56:27.639Z,36.55
2023-05-14T10:59:00.930Z,36.30
2023-05-14T11:01:34.922Z,36.83
2023-05-14T11:04:06.778Z,37.33
2023-05-14T11:06:41.559Z,36.73
2023-05-14T11:09:14.065Z,37.08
2023-05-14T11:11:45.660Z,36.99
2023-05-14T11:14:17.205Z,37.63
2023-05-14T11:16:49.712Z,36.94
2023-05-14T11:19:24.003Z,36.55
2023-05-14T11:21:55.567Z,36.55
2023-05-14T11:24:27.079Z,36.84
2023-05-14T11:26:58.753Z,37.64
2023-05-14T11:29:30.316Z,38.10
2023-05-14T11:32:02.492Z,38.20
2023-05-14T11:34:34.614Z,37.24
2023-05-14T11:37:07.637Z,36.79
2023-05-14T11:39:39.591Z,36.40
2023-05-14T11:42:14.671Z,36.38
2023-05-14T11:44:46.803Z,37.31
2023-05-14T11:47:20.138Z,37.74
2023-05-14T11:49:51.921Z,38.59
2023-05-14T11:52:23.559Z,39.03
2023-05-14T11:54:55.576Z,39.39
2023-05-14T11:57:27.787Z,40.15
2023-05-14T12:00:00.316Z,40.69
2023-05-14T12:02:32.640Z,40.96
2023-05-14T12:05:07.153Z,41.64
2023-05-14T12:07:38.778Z,41.01
2023-05-14T12:10:13.119Z,41.18
2023-05-14T12:12:48.365Z,40.48
2023-05-14T12:15:22.189Z,40.51
2023-05-14T12:17:53.749Z,40.92
2023-05-14T12:20:26.298Z,40.63
2023-05-14T12:22:57.990Z,40.24
2023-05-14T12:25:30.249Z,40.86
2023-05-14T12:28:14.308Z,41.59
2023-05-14T12:30:48.302Z,41.56
2023-05-14T12:33:22.810Z,41.38
2023-05-14T12:35:58.812Z,40.89
2023-05-14T12:38:32.604Z,41.04
2023-05-14T12:41:04.153Z,40.51
2023-05-14T12:43:35.758Z,39.92
2023-05-14T12:46:07.456Z,40.39
2023-05-14T12:48:38.948Z,40.59
2023-05-14T12:51:10.434Z,40.98
2023-05-14T12:53:42.195Z,41.45
2023-05-14T12:56:14.290Z,41.80
2023-05-14T12:58:46.611Z,41.25
2023-05-14T13:01:18.191Z,41.61
2023-05-14T13:03:49.892Z,41.48
2023-05-14T13:06:21.757Z,41.34
2023-05-14T13:08:53.252Z,41.08
2023-05-14T13:11:24.842Z,41.32
2023-05-14T13:13:56.403Z,41.73
2023-05-14T13:16:28.399Z,41.76
2023-05-14T13:18:59.975Z,42.03
2023-05-14T13:21:31.624Z,42.03
2023-05-14T13:24:03.120Z,42.20
2023-05-14T13:26:34.657Z,41.88
2023-05-14T13:29:06.651Z,42.52
2023-05-14T13:31:38.448Z,42.69
2023-05-14T13:34:11.064Z,42.60
2023-05-14T13:36:43.902Z,42.06
2023-05-14T13:39:17.253Z,41.53
2023-05-14T13:41:50.737Z,40.75
2023-05-14T13:44:22.230Z,40.88
2023-05-14T13:46:53.997Z,41.35
2023-05-14T13:49:25.966Z,41.78
2023-05-14T13:51:57.563Z,41.53
2023-05-14T13:54:29.108Z,41.16
2023-05-14T13:57:00.694Z,41.08
2023-05-14T13:59:32.256Z,41.40
2023-05-14T14:02:03.970Z,41.48
2023-05-14T14:04:35.594Z,41.71
2023-05-14T14:07:07.420Z,41.78
2023-05-14T14:09:38.932Z,41.94
2023-05-14T14:12:12.637Z,41.31
2023-05-14T14:14:44.224Z,41.51
2023-05-14T14:17:15.720Z,41.39
2023-05-14T14:19:47.334Z,41.62
2023-05-14T14:22:18.937Z,41.72
2023-05-14T14:24:50.497Z,42.14
2023-05-14T14:27:22.381Z,42.19
2023-05-14T14:29:53.918Z,42.02
2023-05-14T14:32:25.613Z,41.97
2023-05-14T14:34:57.196Z,42.20
2023-05-14T14:37:29.085Z,42.43
2023-05-14T14:40:00.619Z,42.72
2023-05-14T14:42:32.152Z,42.60
2023-05-14T14:45:03.724Z,42.54
2023-05-14T14:47:35.309Z,43.11
2023-05-14T14:50:09.299Z,42.16
2023-05-14T14:52:46.124Z,41.75
2023-05-14T14:55:17.727Z,42.06
2023-05-14T14:57:49.284Z,42.13
2023-05-14T15:00:22.807Z,42.64
2023-05-14T15:02:54.507Z,42.45
2023-05-14T15:05:26.382Z,41.67
2023-05-14T15:07:58.000Z,41.11
2023-05-14T15:10:32.860Z,41.12
2023-05-14T15:13:04.755Z,41.23
2023-05-14T15:15:38.519Z,41.53
2023-05-14T15:18:10.387Z,41.62
2023-05-14T15:20:42.335Z,41.37
2023-05-14T15:23:13.861Z,41.60
2023-05-14T15:25:45.582Z,41.99
2023-05-14T15:28:20.692Z,41.90
2023-05-14T15:30:52.797Z,42.22
2023-05-14T15:33:24.376Z,42.33
2023-05-14T15:35:55.842Z,42.49
2023-05-14T15:38:27.376Z,42.43
2023-05-14T15:40:58.968Z,42.48
2023-05-14T15:43:30.453Z,42.39
2023-05-14T15:46:02.245Z,42.61
2023-05-14T15:48:33.819Z,42.45
2023-05-14T15:51:05.501Z,42.51
2023-05-14T15:53:37.036Z,42.69
2023-05-14T15:56:09.338Z,42.45
2023-05-14T15:58:41.017Z,42.61
2023-05-14T16:01:12.596Z,42.82
2023-05-14T16:03:44.227Z,42.91
2023-05-14T16:06:16.093Z,43.06
2023-05-14T16:08:47.613Z,43.07
2023-05-14T16:11:19.460Z,43.41
2023-05-14T16:13:51.081Z,43.39
2023-05-14T16:16:23.241Z,43.55
2023-05-14T16:18:54.856Z,43.69
2023-05-14T16:21:26.378Z,43.96
2023-05-14T16:23:58.021Z,44.29
2023-05-14T16:26:29.589Z,44.17
2023-05-14T16:29:01.052Z,44.47
2023-05-14T16:31:32.577Z,44.53
2023-05-14T16:34:04.391Z,44.75
2023-05-14T16:36:36.110Z,44.98
2023-05-14T16:39:08.567Z,44.95
2023-05-14T16:41:40.171Z,45.22
2023-05-14T16:44:11.853Z,45.40
2023-05-14T16:46:43.373Z,45.37
2023-05-14T16:49:15.169Z,45.51
2023-05-14T16:51:47.435Z,45.76
2023-05-14T16:54:19.143Z,45.73
2023-05-14T16:56:50.766Z,45.87
2023-05-14T16:59:22.379Z,45.74
2023-05-14T17:01:53.987Z,46.00
2023-05-14T17:04:26.590Z,46.15
2023-05-14T17:06:58.827Z,46.14
2023-05-14T17:09:31.251Z,46.19
2023-05-14T17:12:07.581Z,46.49
2023-05-14T17:14:42.676Z,46.45
2023-05-14T17:17:14.325Z,46.43
2023-05-14T17:19:46.892Z,46.64
2023-05-14T17:22:20.017Z,46.78
2023-05-14T17:24:51.738Z,46.71
2023-05-14T17:27:23.303Z,46.82
2023-05-14T17:29:54.812Z,47.12
2023-05-14T17:32:26.644Z,47.02
2023-05-14T17:34:58.579Z,47.21
2023-05-14T17:37:30.101Z,47.33
2023-05-14T17:40:01.728Z,47.59
2023-05-14T17:42:33.409Z,47.57
2023-05-14T17:45:05.970Z,47.61
2023-05-14T17:47:37.729Z,47.67
2023-05-14T17:50:11.401Z,47.81
2023-05-14T17:52:44.225Z,47.78
2023-05-14T17:55:18.082Z,47.81
2023-05-14T17:57:49.765Z,48.04
2023-05-14T18:00:21.890Z,48.05
2023-05-14T18:02:53.582Z,48.12
2023-05-14T18:05:25.492Z,48.39
2023-05-14T18:07:58.009Z,48.61
2023-05-14T18:10:30.071Z,48.72
2023-05-14T18:13:01.575Z,48.87
2023-05-14T18:15:33.730Z,48.87
2023-05-14T18:18:06.000Z,49.11
2023-05-14T18:20:38.572Z,49.10
2023-05-14T18:23:10.157Z,49.19
2023-05-14T18:25:41.933Z,49.47
2023-05-14T18:28:13.611Z,50.08
2023-05-14T18:30:45.328Z,50.86
2023-05-14T18:33:17.083Z,51.59
2023-05-14T18:35:48.892Z,52.08
2023-05-14T18:38:20.501Z,52.11
2023-05-14T18:40:52.135Z,52.78
2023-05-14T18:43:23.643Z,52.11
2023-05-14T18:45:55.329Z,53.08
2023-05-14T18:48:27.045Z,54.61
2023-05-14T18:50:58.671Z,56.24
2023-05-14T18:53:30.277Z,56.92
2023-05-14T18:56:02.092Z,57.79
2023-05-14T18:58:33.739Z,58.54
2023-05-14T19:01:05.631Z,59.41
2023-05-14T19:03:37.612Z,60.05
2023-05-14T19:06:10.760Z,60.60
2023-05-14T19:08:42.521Z,61.25
2023-05-14T19:11:14.322Z,62.16
2023-05-14T19:13:47.914Z,63.21
2023-05-14T19:16:20.059Z,63.63
2023-05-14T19:18:51.766Z,63.79
2023-05-14T19:21:23.715Z,64.06
2023-05-14T19:23:55.504Z,64.43
2023-05-14T19:26:27.440Z,64.99
2023-05-14T19:28:59.288Z,65.16
2023-05-14T19:31:31.131Z,65.51
2023-05-14T19:34:02.945Z,66.08
2023-05-14T19:36:35.022Z,66.38
2023-05-14T19:39:07.118Z,66.73
2023-05-14T19:41:38.822Z,67.24
2023-05-14T19:44:10.464Z,67.63
2023-05-14T19:46:42.815Z,68.08
2023-05-14T19:49:14.562Z,68.33
2023-05-14T19:51:46.296Z,68.63
2023-05-14T19:54:18.004Z,68.98
2023-05-14T19:56:49.898Z,69.26
2023-05-14T19:59:21.583Z,69.03
2023-05-14T20:01:54.512Z,69.04
2023-05-14T20:04:26.181Z,69.64
2023-05-14T20:06:57.845Z,70.01
2023-05-14T20:09:29.364Z,70.28
2023-05-14T20:12:00.955Z,70.42
2023-05-14T20:14:32.527Z,70.92
2023-05-14T20:17:04.460Z,70.78
2023-05-14T20:19:36.210Z,70.67
2023-05-14T20:22:07.887Z,70.94
2023-05-14T20:24:41.075Z,71.11
2023-05-14T20:27:12.972Z,71.45
2023-05-14T20:29:45.446Z,71.73
2023-05-14T20:32:17.043Z,72.24
2023-05-14T20:34:48.816Z,72.41
2023-05-14T20:37:20.756Z,72.30
2023-05-14T20:39:53.293Z,72.52
2023-05-14T20:42:25.100Z,72.83
2023-05-14T20:45:03.218Z,72.76
2023-05-14T20:47:35.674Z,73.04
2023-05-14T20:50:08.996Z,73.20
2023-05-14T20:52:40.643Z,73.22
2023-05-14T20:55:13.326Z,73.51
2023-05-14T20:57:45.006Z,73.32
2023-05-14T21:00:17.935Z,73.73
2023-05-14T21:02:49.765Z,73.80
2023-05-14T21:05:22.020Z,73.77
2023-05-14T21:07:53.563Z,73.78
2023-05-14T21:10:35.391Z,73.83
2023-05-14T21:13:07.123Z,73.78
2023-05-14T21:15:38.798Z,73.70
2023-05-14T21:18:10.653Z,73.73
2023-05-14T21:20:42.546Z,73.44
2023-05-14T21:23:16.043Z,73.59
2023-05-14T21:25:47.681Z,74.13
2023-05-14T21:28:19.316Z,74.06
2023-05-14T21:30:52.863Z,74.42
2023-05-14T21:33:24.650Z,74.56
2023-05-14T21:35:56.256Z,75.11
2023-05-14T21:38:27.913Z,75.36
2023-05-14T21:40:59.677Z,75.55
2023-05-14T21:43:31.428Z,75.68
2023-05-14T21:46:03.202Z,76.06
2023-05-14T21:48:35.011Z,76.11
2023-05-14T21:51:07.313Z,76.20
2023-05-14T21:53:38.927Z,76.30
2023-05-14T21:56:10.708Z,76.11
2023-05-14T21:58:42.464Z,76.07
2023-05-14T22:01:14.110Z,76.23
2023-05-14T22:03:45.852Z,76.38
2023-05-14T22:06:17.331Z,76.40
2023-05-14T22:08:47.428Z,76.28
2023-05-14T22:11:18.919Z,76.60
2023-05-14T22:13:50.782Z,76.51
2023-05-14T22:16:22.711Z,76.53
2023-05-14T22:18:54.570Z,76.58
2023-05-14T22:21:26.150Z,76.89
2023-05-14T22:23:57.766Z,77.13
2023-05-14T22:26:29.282Z,77.19
2023-05-14T22:29:00.852Z,77.22
2023-05-14T22:31:32.401Z,77.06
2023-05-14T22:34:04.027Z,77.19
2023-05-14T22:36:35.654Z,77.54
2023-05-14T22:39:07.412Z,77.61
2023-05-14T22:41:39.089Z,77.61
2023-05-14T22:44:10.632Z,77.80
2023-05-14T22:46:41.138Z,77.99
2023-05-14T22:49:12.653Z,78.08
2023-05-14T22:51:42.873Z,78.24
2023-05-14T22:54:14.479Z,78.59
2023-05-14T22:56:45.985Z,78.88
2023-05-14T22:59:16.417Z,79.06
2023-05-14T23:01:48.385Z,79.15
2023-05-14T23:04:20.007Z,79.40
2023-05-14T23:06:51.523Z,79.38
2023-05-14T23:09:23.059Z,79.56
2023-05-14T23:11:53.081Z,79.72
2023-05-14T23:14:24.592Z,80.22
2023-05-14T23:16:54.641Z,80.13
2023-05-14T23:19:26.483Z,80.20
2023-05-14T23:21:59.397Z,80.18
2023-05-14T23:24:30.893Z,80.40
2023-05-14T23:27:01.180Z,80.49
2023-05-14T23:29:32.671Z,80.69
2023-05-14T23:32:02.756Z,81.05
2023-05-14T23:34:34.614Z,81.33
2023-05-14T23:37:06.412Z,81.59
2023-05-14T23:39:38.042Z,81.89
2023-05-14T23:42:09.895Z,81.84
2023-05-14T23:44:41.440Z,81.70
2023-05-14T23:47:12.304Z,82.12
2023-05-14T23:49:43.850Z,82.22
2023-05-14T23:52:15.328Z,82.29
2023-05-14T23:54:47.006Z,82.43
2023-05-14T23:57:18.691Z,82.53
2023-05-14T23:59:50.378Z,82.47
